sensor_id;sensor_type;location;lat;lon;timestamp;pressure;altitude;pressure_sealevel;temperature;humidity
62632;BME280;48703;51.248;-0.546;2023-04-06T00:00:20;100905;;;8.98;89.72
62632;BME280;48703;51.248;-0.546;2023-04-06T00:03:22;100899;;;8.98;89.74
62632;BME280;48703;51.248;-0.546;2023-04-06T00:06:24;100896;;;8.99;89.56
62632;BME280;48703;51.248;-0.546;2023-04-06T00:09:26;100892;;;8.99;89.52
62632;BME280;48703;51.248;-0.546;2023-04-06T00:12:28;100889;;;8.99;89.68
62632;BME280;48703;51.248;-0.546;2023-04-06T00:15:30;100886;;;8.99;90.91
62632;BME280;48703;51.248;-0.546;2023-04-06T00:18:32;100882;;;8.98;90.18
62632;BME280;48703;51.248;-0.546;2023-04-06T00:21:34;100881;;;8.98;90.15
62632;BME280;48703;51.248;-0.546;2023-04-06T00:24:36;100879;;;9.00;90.03
62632;BME280;48703;51.248;-0.546;2023-04-06T00:27:38;100878;;;9.00;90.26
62632;BME280;48703;51.248;-0.546;2023-04-06T00:30:40;100876;;;8.99;90.36
62632;BME280;48703;51.248;-0.546;2023-04-06T00:33:42;100871;;;8.98;90.58
62632;BME280;48703;51.248;-0.546;2023-04-06T00:36:44;100867;;;8.99;90.41
62632;BME280;48703;51.248;-0.546;2023-04-06T00:39:46;100863;;;9.00;90.56
62632;BME280;48703;51.248;-0.546;2023-04-06T00:42:48;100858;;;9.01;90.65
62632;BME280;48703;51.248;-0.546;2023-04-06T00:45:50;100853;;;9.01;90.61
62632;BME280;48703;51.248;-0.546;2023-04-06T00:48:52;100847;;;9.00;91.26
62632;BME280;48703;51.248;-0.546;2023-04-06T00:51:54;100843;;;9.00;91.20
62632;BME280;48703;51.248;-0.546;2023-04-06T00:54:56;100840;;;9.00;91.41
62632;BME280;48703;51.248;-0.546;2023-04-06T00:57:58;100837;;;9.01;92.09
62632;BME280;48703;51.248;-0.546;2023-04-06T01:01:00;100831;;;9.00;91.54
62632;BME280;48703;51.248;-0.546;2023-04-06T01:04:02;100828;;;9.00;91.24
62632;BME280;48703;51.248;-0.546;2023-04-06T01:07:04;100824;;;9.00;91.71
62632;BME280;48703;51.248;-0.546;2023-04-06T01:10:07;100820;;;9.00;92.00
62632;BME280;48703;51.248;-0.546;2023-04-06T01:13:08;100816;;;9.01;91.89
62632;BME280;48703;51.248;-0.546;2023-04-06T01:16:11;100812;;;9.02;92.13
62632;BME280;48703;51.248;-0.546;2023-04-06T01:19:13;100808;;;9.02;91.60
62632;BME280;48703;51.248;-0.546;2023-04-06T01:22:15;100805;;;9.03;92.74
62632;BME280;48703;51.248;-0.546;2023-04-06T01:25:16;100799;;;9.02;92.66
62632;BME280;48703;51.248;-0.546;2023-04-06T01:28:18;100795;;;9.02;92.92
62632;BME280;48703;51.248;-0.546;2023-04-06T01:31:21;100791;;;9.03;92.51
62632;BME280;48703;51.248;-0.546;2023-04-06T01:34:22;100787;;;9.03;92.39
62632;BME280;48703;51.248;-0.546;2023-04-06T01:37:24;100784;;;9.04;91.98
62632;BME280;48703;51.248;-0.546;2023-04-06T01:40:26;100783;;;9.05;93.85
62632;BME280;48703;51.248;-0.546;2023-04-06T01:43:28;100779;;;9.04;92.93
62632;BME280;48703;51.248;-0.546;2023-04-06T01:46:30;100774;;;9.05;92.79
62632;BME280;48703;51.248;-0.546;2023-04-06T01:49:32;100770;;;9.05;92.43
62632;BME280;48703;51.248;-0.546;2023-04-06T01:52:35;100767;;;9.06;92.70
62632;BME280;48703;51.248;-0.546;2023-04-06T01:55:36;100765;;;9.07;92.26
62632;BME280;48703;51.248;-0.546;2023-04-06T01:58:38;100760;;;9.07;92.71
62632;BME280;48703;51.248;-0.546;2023-04-06T02:01:40;100757;;;9.07;92.90
62632;BME280;48703;51.248;-0.546;2023-04-06T02:04:42;100756;;;9.07;93.42
62632;BME280;48703;51.248;-0.546;2023-04-06T02:07:44;100752;;;9.07;92.95
62632;BME280;48703;51.248;-0.546;2023-04-06T02:10:46;100745;;;9.08;93.18
62632;BME280;48703;51.248;-0.546;2023-04-06T02:13:48;100740;;;9.07;93.24
62632;BME280;48703;51.248;-0.546;2023-04-06T02:16:51;100738;;;9.07;94.21
62632;BME280;48703;51.248;-0.546;2023-04-06T02:19:52;100734;;;9.06;94.11
62632;BME280;48703;51.248;-0.546;2023-04-06T02:22:56;100730;;;9.06;94.47
62632;BME280;48703;51.248;-0.546;2023-04-06T02:25:56;100725;;;9.06;94.13
62632;BME280;48703;51.248;-0.546;2023-04-06T02:28:59;100723;;;9.05;93.68
62632;BME280;48703;51.248;-0.546;2023-04-06T02:32:01;100723;;;9.07;93.60
62632;BME280;48703;51.248;-0.546;2023-04-06T02:35:03;100720;;;9.07;93.84
62632;BME280;48703;51.248;-0.546;2023-04-06T02:38:05;100717;;;9.07;93.60
62632;BME280;48703;51.248;-0.546;2023-04-06T02:41:07;100713;;;9.07;94.68
62632;BME280;48703;51.248;-0.546;2023-04-06T02:44:09;100707;;;9.07;94.04
62632;BME280;48703;51.248;-0.546;2023-04-06T02:47:11;100701;;;9.08;94.44
62632;BME280;48703;51.248;-0.546;2023-04-06T02:50:13;100695;;;9.07;93.53
62632;BME280;48703;51.248;-0.546;2023-04-06T02:53:15;100693;;;9.08;93.55
62632;BME280;48703;51.248;-0.546;2023-04-06T02:56:17;100695;;;9.08;93.64
62632;BME280;48703;51.248;-0.546;2023-04-06T02:59:19;100691;;;9.08;94.69
62632;BME280;48703;51.248;-0.546;2023-04-06T03:02:21;100687;;;9.07;93.83
62632;BME280;48703;51.248;-0.546;2023-04-06T03:05:23;100686;;;9.08;93.89
62632;BME280;48703;51.248;-0.546;2023-04-06T03:08:25;100688;;;9.09;94.13
62632;BME280;48703;51.248;-0.546;2023-04-06T03:11:27;100686;;;9.10;94.22
62632;BME280;48703;51.248;-0.546;2023-04-06T03:14:29;100681;;;9.10;94.63
62632;BME280;48703;51.248;-0.546;2023-04-06T03:17:31;100678;;;9.09;94.08
62632;BME280;48703;51.248;-0.546;2023-04-06T03:20:33;100673;;;9.10;93.84
62632;BME280;48703;51.248;-0.546;2023-04-06T03:23:35;100668;;;9.10;93.51
62632;BME280;48703;51.248;-0.546;2023-04-06T03:26:37;100665;;;9.12;93.85
62632;BME280;48703;51.248;-0.546;2023-04-06T03:29:39;100662;;;9.13;94.11
62632;BME280;48703;51.248;-0.546;2023-04-06T03:32:41;100663;;;9.13;93.79
62632;BME280;48703;51.248;-0.546;2023-04-06T03:35:43;100661;;;9.14;93.99
62632;BME280;48703;51.248;-0.546;2023-04-06T03:38:45;100660;;;9.14;94.33
62632;BME280;48703;51.248;-0.546;2023-04-06T03:41:47;100659;;;9.14;94.31
62632;BME280;48703;51.248;-0.546;2023-04-06T03:44:49;100659;;;9.14;94.07
62632;BME280;48703;51.248;-0.546;2023-04-06T03:47:51;100655;;;9.15;93.80
62632;BME280;48703;51.248;-0.546;2023-04-06T03:50:53;100654;;;9.16;93.92
62632;BME280;48703;51.248;-0.546;2023-04-06T03:53:55;100650;;;9.17;94.12
62632;BME280;48703;51.248;-0.546;2023-04-06T03:56:57;100650;;;9.18;94.66
62632;BME280;48703;51.248;-0.546;2023-04-06T03:59:59;100648;;;9.17;94.70
62632;BME280;48703;51.248;-0.546;2023-04-06T04:03:01;100646;;;9.17;94.49
62632;BME280;48703;51.248;-0.546;2023-04-06T04:06:03;100643;;;9.19;94.34
62632;BME280;48703;51.248;-0.546;2023-04-06T04:09:05;100639;;;9.20;94.83
62632;BME280;48703;51.248;-0.546;2023-04-06T04:12:07;100633;;;9.20;94.44
62632;BME280;48703;51.248;-0.546;2023-04-06T04:15:09;100629;;;9.21;95.26
62632;BME280;48703;51.248;-0.546;2023-04-06T04:18:11;100627;;;9.20;94.94
62632;BME280;48703;51.248;-0.546;2023-04-06T04:21:13;100625;;;9.21;94.83
62632;BME280;48703;51.248;-0.546;2023-04-06T04:24:15;100628;;;9.23;94.96
62632;BME280;48703;51.248;-0.546;2023-04-06T04:27:17;100622;;;9.24;95.28
62632;BME280;48703;51.248;-0.546;2023-04-06T04:30:19;100619;;;9.24;94.88
62632;BME280;48703;51.248;-0.546;2023-04-06T04:33:21;100619;;;9.24;95.50
62632;BME280;48703;51.248;-0.546;2023-04-06T04:36:23;100620;;;9.26;95.12
62632;BME280;48703;51.248;-0.546;2023-04-06T04:39:25;100621;;;9.28;95.25
62632;BME280;48703;51.248;-0.546;2023-04-06T04:42:27;100621;;;9.29;95.39
62632;BME280;48703;51.248;-0.546;2023-04-06T04:45:29;100622;;;9.30;95.86
62632;BME280;48703;51.248;-0.546;2023-04-06T04:48:31;100620;;;9.31;95.94
62632;BME280;48703;51.248;-0.546;2023-04-06T04:51:33;100617;;;9.31;95.85
62632;BME280;48703;51.248;-0.546;2023-04-06T04:54:35;100613;;;9.31;95.86
62632;BME280;48703;51.248;-0.546;2023-04-06T04:57:37;100610;;;9.33;96.42
62632;BME280;48703;51.248;-0.546;2023-04-06T05:00:39;100606;;;9.32;95.70
62632;BME280;48703;51.248;-0.546;2023-04-06T05:03:41;100607;;;9.33;95.84
62632;BME280;48703;51.248;-0.546;2023-04-06T05:06:43;100604;;;9.34;95.36
62632;BME280;48703;51.248;-0.546;2023-04-06T05:09:45;100598;;;9.35;95.24
62632;BME280;48703;51.248;-0.546;2023-04-06T05:12:47;100594;;;9.37;96.16
62632;BME280;48703;51.248;-0.546;2023-04-06T05:15:49;100592;;;9.37;95.18
62632;BME280;48703;51.248;-0.546;2023-04-06T05:18:51;100595;;;9.38;95.39
62632;BME280;48703;51.248;-0.546;2023-04-06T05:21:53;100594;;;9.39;95.59
62632;BME280;48703;51.248;-0.546;2023-04-06T05:24:55;100589;;;9.40;95.69
62632;BME280;48703;51.248;-0.546;2023-04-06T05:27:57;100584;;;9.40;96.05
62632;BME280;48703;51.248;-0.546;2023-04-06T05:30:59;100581;;;9.40;95.70
62632;BME280;48703;51.248;-0.546;2023-04-06T05:34:01;100593;;;9.41;96.52
62632;BME280;48703;51.248;-0.546;2023-04-06T05:37:03;100593;;;9.42;96.20
62632;BME280;48703;51.248;-0.546;2023-04-06T05:40:05;100590;;;9.44;96.57
62632;BME280;48703;51.248;-0.546;2023-04-06T05:43:07;100593;;;9.44;96.44
62632;BME280;48703;51.248;-0.546;2023-04-06T05:46:09;100595;;;9.44;96.12
62632;BME280;48703;51.248;-0.546;2023-04-06T05:49:11;100598;;;9.46;96.10
62632;BME280;48703;51.248;-0.546;2023-04-06T05:52:13;100605;;;9.48;96.03
62632;BME280;48703;51.248;-0.546;2023-04-06T05:55:15;100602;;;9.49;96.07
62632;BME280;48703;51.248;-0.546;2023-04-06T05:58:17;100596;;;9.50;96.62
62632;BME280;48703;51.248;-0.546;2023-04-06T06:01:19;100588;;;9.50;95.89
62632;BME280;48703;51.248;-0.546;2023-04-06T06:04:21;100590;;;9.52;96.21
62632;BME280;48703;51.248;-0.546;2023-04-06T06:07:23;100597;;;9.53;96.17
62632;BME280;48703;51.248;-0.546;2023-04-06T06:10:25;100596;;;9.55;96.17
62632;BME280;48703;51.248;-0.546;2023-04-06T06:13:27;100601;;;9.58;96.26
62632;BME280;48703;51.248;-0.546;2023-04-06T06:16:29;100608;;;9.60;96.55
62632;BME280;48703;51.248;-0.546;2023-04-06T06:19:31;100614;;;9.62;96.68
62632;BME280;48703;51.248;-0.546;2023-04-06T06:22:33;100611;;;9.63;96.33
62632;BME280;48703;51.248;-0.546;2023-04-06T06:25:35;100607;;;9.65;96.21
62632;BME280;48703;51.248;-0.546;2023-04-06T06:28:37;100599;;;9.67;96.38
62632;BME280;48703;51.248;-0.546;2023-04-06T06:31:39;100594;;;9.69;96.50
62632;BME280;48703;51.248;-0.546;2023-04-06T06:34:41;100591;;;9.70;96.43
62632;BME280;48703;51.248;-0.546;2023-04-06T06:37:43;100582;;;9.71;96.02
62632;BME280;48703;51.248;-0.546;2023-04-06T06:40:45;100591;;;9.74;95.88
62632;BME280;48703;51.248;-0.546;2023-04-06T06:43:47;100599;;;9.76;95.73
62632;BME280;48703;51.248;-0.546;2023-04-06T06:46:49;100604;;;9.78;95.79
62632;BME280;48703;51.248;-0.546;2023-04-06T06:49:51;100601;;;9.80;95.87
62632;BME280;48703;51.248;-0.546;2023-04-06T06:52:53;100601;;;9.82;96.42
62632;BME280;48703;51.248;-0.546;2023-04-06T06:55:55;100603;;;9.84;96.09
62632;BME280;48703;51.248;-0.546;2023-04-06T06:58:57;100608;;;9.86;95.99
62632;BME280;48703;51.248;-0.546;2023-04-06T07:01:59;100612;;;9.88;95.66
62632;BME280;48703;51.248;-0.546;2023-04-06T07:05:01;100613;;;9.90;95.75
62632;BME280;48703;51.248;-0.546;2023-04-06T07:08:04;100617;;;9.93;95.48
62632;BME280;48703;51.248;-0.546;2023-04-06T07:11:05;100621;;;9.96;95.32
62632;BME280;48703;51.248;-0.546;2023-04-06T07:14:07;100619;;;9.98;95.69
62632;BME280;48703;51.248;-0.546;2023-04-06T07:17:09;100618;;;10.00;95.64
62632;BME280;48703;51.248;-0.546;2023-04-06T07:20:12;100622;;;10.02;94.98
62632;BME280;48703;51.248;-0.546;2023-04-06T07:23:13;100624;;;10.03;94.32
62632;BME280;48703;51.248;-0.546;2023-04-06T07:26:15;100625;;;10.06;94.24
62632;BME280;48703;51.248;-0.546;2023-04-06T07:29:17;100628;;;10.04;93.07
62632;BME280;48703;51.248;-0.546;2023-04-06T07:32:19;100629;;;10.05;93.10
62632;BME280;48703;51.248;-0.546;2023-04-06T07:35:21;100632;;;10.05;92.88
62632;BME280;48703;51.248;-0.546;2023-04-06T07:38:23;100632;;;10.04;92.71
62632;BME280;48703;51.248;-0.546;2023-04-06T07:41:25;100636;;;10.06;92.95
62632;BME280;48703;51.248;-0.546;2023-04-06T07:44:27;100639;;;10.08;92.72
62632;BME280;48703;51.248;-0.546;2023-04-06T07:47:29;100640;;;10.09;92.44
62632;BME280;48703;51.248;-0.546;2023-04-06T07:50:31;100640;;;10.08;92.28
62632;BME280;48703;51.248;-0.546;2023-04-06T07:53:33;100647;;;10.07;92.43
62632;BME280;48703;51.248;-0.546;2023-04-06T07:56:35;100647;;;10.06;91.93
62632;BME280;48703;51.248;-0.546;2023-04-06T07:59:37;100650;;;10.04;91.90
62632;BME280;48703;51.248;-0.546;2023-04-06T08:02:39;100649;;;10.06;91.94
62632;BME280;48703;51.248;-0.546;2023-04-06T08:05:42;100646;;;10.08;91.91
62632;BME280;48703;51.248;-0.546;2023-04-06T08:08:44;100645;;;10.10;91.97
62632;BME280;48703;51.248;-0.546;2023-04-06T08:11:45;100641;;;10.15;91.23
62632;BME280;48703;51.248;-0.546;2023-04-06T08:14:48;100640;;;10.21;91.48
62632;BME280;48703;51.248;-0.546;2023-04-06T08:17:50;100639;;;10.30;91.69
62632;BME280;48703;51.248;-0.546;2023-04-06T08:20:52;100636;;;10.36;91.19
62632;BME280;48703;51.248;-0.546;2023-04-06T08:23:54;100636;;;10.43;91.20
62632;BME280;48703;51.248;-0.546;2023-04-06T08:26:56;100636;;;10.48;90.35
62632;BME280;48703;51.248;-0.546;2023-04-06T08:29:58;100632;;;10.53;90.45
62632;BME280;48703;51.248;-0.546;2023-04-06T08:33:00;100631;;;10.54;89.89
62632;BME280;48703;51.248;-0.546;2023-04-06T08:36:10;100632;;;10.53;89.88
62632;BME280;48703;51.248;-0.546;2023-04-06T08:39:04;100635;;;10.55;89.94
62632;BME280;48703;51.248;-0.546;2023-04-06T08:42:10;100645;;;10.58;89.71
62632;BME280;48703;51.248;-0.546;2023-04-06T08:45:08;100644;;;10.66;89.72
62632;BME280;48703;51.248;-0.546;2023-04-06T08:48:10;100649;;;10.71;89.08
62632;BME280;48703;51.248;-0.546;2023-04-06T08:51:12;100648;;;10.77;88.77
62632;BME280;48703;51.248;-0.546;2023-04-06T08:54:14;100650;;;10.84;88.67
62632;BME280;48703;51.248;-0.546;2023-04-06T08:57:16;100649;;;10.85;89.06
62632;BME280;48703;51.248;-0.546;2023-04-06T09:00:18;100648;;;10.87;88.73
62632;BME280;48703;51.248;-0.546;2023-04-06T09:03:20;100650;;;10.88;88.65
62632;BME280;48703;51.248;-0.546;2023-04-06T09:06:22;100652;;;10.85;88.72
62632;BME280;48703;51.248;-0.546;2023-04-06T09:09:24;100653;;;10.85;88.86
62632;BME280;48703;51.248;-0.546;2023-04-06T09:12:26;100652;;;10.81;88.16
62632;BME280;48703;51.248;-0.546;2023-04-06T09:15:28;100658;;;10.81;88.78
62632;BME280;48703;51.248;-0.546;2023-04-06T09:18:30;100655;;;10.83;88.76
62632;BME280;48703;51.248;-0.546;2023-04-06T09:21:32;100660;;;10.91;89.00
62632;BME280;48703;51.248;-0.546;2023-04-06T09:24:41;100661;;;11.00;88.60
62632;BME280;48703;51.248;-0.546;2023-04-06T09:27:37;100659;;;11.10;88.39
62632;BME280;48703;51.248;-0.546;2023-04-06T09:30:47;100659;;;11.13;86.65
62632;BME280;48703;51.248;-0.546;2023-04-06T09:33:40;100664;;;11.24;87.68
62632;BME280;48703;51.248;-0.546;2023-04-06T09:36:42;100669;;;11.32;86.07
62632;BME280;48703;51.248;-0.546;2023-04-06T09:39:44;100662;;;11.43;85.56
62632;BME280;48703;51.248;-0.546;2023-04-06T09:42:46;100664;;;11.43;83.72
62632;BME280;48703;51.248;-0.546;2023-04-06T09:45:48;100664;;;11.44;83.76
62632;BME280;48703;51.248;-0.546;2023-04-06T09:48:50;100671;;;11.48;83.41
62632;BME280;48703;51.248;-0.546;2023-04-06T09:51:53;100671;;;11.51;82.31
62632;BME280;48703;51.248;-0.546;2023-04-06T09:54:55;100670;;;11.56;82.93
62632;BME280;48703;51.248;-0.546;2023-04-06T09:57:58;100674;;;11.62;82.32
62632;BME280;48703;51.248;-0.546;2023-04-06T10:00:59;100674;;;11.67;81.70
62632;BME280;48703;51.248;-0.546;2023-04-06T10:04:03;100676;;;11.69;82.16
62632;BME280;48703;51.248;-0.546;2023-04-06T10:07:02;100678;;;11.71;81.21
62632;BME280;48703;51.248;-0.546;2023-04-06T10:10:04;100679;;;11.75;80.57
62632;BME280;48703;51.248;-0.546;2023-04-06T10:13:06;100676;;;11.76;80.86
62632;BME280;48703;51.248;-0.546;2023-04-06T10:16:08;100678;;;11.79;79.66
62632;BME280;48703;51.248;-0.546;2023-04-06T10:19:12;100677;;;11.83;78.79
62632;BME280;48703;51.248;-0.546;2023-04-06T10:22:12;100682;;;11.92;79.12
62632;BME280;48703;51.248;-0.546;2023-04-06T10:25:14;100679;;;11.98;78.32
62632;BME280;48703;51.248;-0.546;2023-04-06T10:28:16;100678;;;12.05;77.61
62632;BME280;48703;51.248;-0.546;2023-04-06T10:31:23;100685;;;12.08;77.04
62632;BME280;48703;51.248;-0.546;2023-04-06T10:34:20;100687;;;12.14;75.73
62632;BME280;48703;51.248;-0.546;2023-04-06T10:37:22;100691;;;12.20;76.06
62632;BME280;48703;51.248;-0.546;2023-04-06T10:40:24;100691;;;12.23;76.41
62632;BME280;48703;51.248;-0.546;2023-04-06T10:43:26;100685;;;12.25;75.79
62632;BME280;48703;51.248;-0.546;2023-04-06T10:46:29;100686;;;12.29;74.99
62632;BME280;48703;51.248;-0.546;2023-04-06T10:49:30;100685;;;12.29;73.88
62632;BME280;48703;51.248;-0.546;2023-04-06T10:52:32;100689;;;12.22;74.13
62632;BME280;48703;51.248;-0.546;2023-04-06T10:55:34;100690;;;12.18;73.67
62632;BME280;48703;51.248;-0.546;2023-04-06T10:58:36;100701;;;12.11;72.85
62632;BME280;48703;51.248;-0.546;2023-04-06T11:01:38;100702;;;12.07;73.40
62632;BME280;48703;51.248;-0.546;2023-04-06T11:04:40;100706;;;12.09;73.44
62632;BME280;48703;51.248;-0.546;2023-04-06T11:07:42;100703;;;12.15;74.56
62632;BME280;48703;51.248;-0.546;2023-04-06T11:10:44;100703;;;12.24;73.28
62632;BME280;48703;51.248;-0.546;2023-04-06T11:13:47;100705;;;12.37;73.46
62632;BME280;48703;51.248;-0.546;2023-04-06T11:16:48;100709;;;12.48;70.70
62632;BME280;48703;51.248;-0.546;2023-04-06T11:19:50;100713;;;12.56;70.15
62632;BME280;48703;51.248;-0.546;2023-04-06T11:22:52;100714;;;12.63;69.65
62632;BME280;48703;51.248;-0.546;2023-04-06T11:25:54;100712;;;12.66;69.18
62632;BME280;48703;51.248;-0.546;2023-04-06T11:28:56;100713;;;12.62;67.20
62632;BME280;48703;51.248;-0.546;2023-04-06T11:31:58;100710;;;12.58;67.39
62632;BME280;48703;51.248;-0.546;2023-04-06T11:35:00;100712;;;12.61;67.99
62632;BME280;48703;51.248;-0.546;2023-04-06T11:38:02;100707;;;12.66;67.41
62632;BME280;48703;51.248;-0.546;2023-04-06T11:41:04;100713;;;12.71;67.06
62632;BME280;48703;51.248;-0.546;2023-04-06T11:44:06;100706;;;12.80;67.65
62632;BME280;48703;51.248;-0.546;2023-04-06T11:47:09;100710;;;12.91;67.67
62632;BME280;48703;51.248;-0.546;2023-04-06T11:50:11;100707;;;12.91;66.28
62632;BME280;48703;51.248;-0.546;2023-04-06T11:53:12;100705;;;12.91;66.55
62632;BME280;48703;51.248;-0.546;2023-04-06T11:56:22;100703;;;12.92;65.95
62632;BME280;48703;51.248;-0.546;2023-04-06T11:59:16;100703;;;12.94;64.88
62632;BME280;48703;51.248;-0.546;2023-04-06T12:02:18;100701;;;13.00;67.02
62632;BME280;48703;51.248;-0.546;2023-04-06T12:05:20;100703;;;13.03;65.91
62632;BME280;48703;51.248;-0.546;2023-04-06T12:08:22;100695;;;13.02;64.66
62632;BME280;48703;51.248;-0.546;2023-04-06T12:11:24;100701;;;12.97;62.65
62632;BME280;48703;51.248;-0.546;2023-04-06T12:14:26;100704;;;12.92;62.80
62632;BME280;48703;51.248;-0.546;2023-04-06T12:17:28;100706;;;12.85;64.03
62632;BME280;48703;51.248;-0.546;2023-04-06T12:20:31;100710;;;12.76;64.52
62632;BME280;48703;51.248;-0.546;2023-04-06T12:23:32;100710;;;12.65;66.73
62632;BME280;48703;51.248;-0.546;2023-04-06T12:26:35;100729;;;12.51;67.36
62632;BME280;48703;51.248;-0.546;2023-04-06T12:29:36;100765;;;12.23;68.83
62632;BME280;48703;51.248;-0.546;2023-04-06T12:32:38;100766;;;11.78;70.91
62632;BME280;48703;51.248;-0.546;2023-04-06T12:35:40;100764;;;11.46;72.72
62632;BME280;48703;51.248;-0.546;2023-04-06T12:38:42;100762;;;11.34;74.79
62632;BME280;48703;51.248;-0.546;2023-04-06T12:41:44;100753;;;11.26;75.55
62632;BME280;48703;51.248;-0.546;2023-04-06T12:44:46;100750;;;11.18;75.71
62632;BME280;48703;51.248;-0.546;2023-04-06T12:47:48;100744;;;11.20;77.54
62632;BME280;48703;51.248;-0.546;2023-04-06T12:50:53;100741;;;11.29;76.27
62632;BME280;48703;51.248;-0.546;2023-04-06T12:53:52;100740;;;11.37;77.50
62632;BME280;48703;51.248;-0.546;2023-04-06T12:56:54;100740;;;11.41;77.66
62632;BME280;48703;51.248;-0.546;2023-04-06T12:59:56;100741;;;11.45;78.82
62632;BME280;48703;51.248;-0.546;2023-04-06T13:02:58;100741;;;11.47;79.02
62632;BME280;48703;51.248;-0.546;2023-04-06T13:06:00;100741;;;11.46;79.04
62632;BME280;48703;51.248;-0.546;2023-04-06T13:09:02;100741;;;11.47;80.23
62632;BME280;48703;51.248;-0.546;2023-04-06T13:12:04;100743;;;11.54;79.33
62632;BME280;48703;51.248;-0.546;2023-04-06T13:15:07;100740;;;11.65;78.84
62632;BME280;48703;51.248;-0.546;2023-04-06T13:18:08;100738;;;11.69;77.23
62632;BME280;48703;51.248;-0.546;2023-04-06T13:21:13;100737;;;11.72;76.11
62632;BME280;48703;51.248;-0.546;2023-04-06T13:24:12;100730;;;11.76;72.70
62632;BME280;48703;51.248;-0.546;2023-04-06T13:27:14;100732;;;11.80;73.75
62632;BME280;48703;51.248;-0.546;2023-04-06T13:30:16;100732;;;11.90;74.76
62632;BME280;48703;51.248;-0.546;2023-04-06T13:33:18;100733;;;12.06;75.91
62632;BME280;48703;51.248;-0.546;2023-04-06T13:36:20;100731;;;12.30;74.08
62632;BME280;48703;51.248;-0.546;2023-04-06T13:39:22;100736;;;12.57;70.90
62632;BME280;48703;51.248;-0.546;2023-04-06T13:42:25;100745;;;12.74;69.53
62632;BME280;48703;51.248;-0.546;2023-04-06T13:45:26;100750;;;12.72;67.15
62632;BME280;48703;51.248;-0.546;2023-04-06T13:48:28;100757;;;12.64;65.17
62632;BME280;48703;51.248;-0.546;2023-04-06T13:51:30;100754;;;12.58;67.21
62632;BME280;48703;51.248;-0.546;2023-04-06T13:54:32;100770;;;12.50;65.96
62632;BME280;48703;51.248;-0.546;2023-04-06T13:57:34;100777;;;12.38;65.37
62632;BME280;48703;51.248;-0.546;2023-04-06T14:00:36;100775;;;12.28;66.97
62632;BME280;48703;51.248;-0.546;2023-04-06T14:03:38;100783;;;12.23;67.89
62632;BME280;48703;51.248;-0.546;2023-04-06T14:06:40;100797;;;12.15;67.70
62632;BME280;48703;51.248;-0.546;2023-04-06T14:09:42;100802;;;11.99;67.42
62632;BME280;48703;51.248;-0.546;2023-04-06T14:12:44;100815;;;11.84;68.51
62632;BME280;48703;51.248;-0.546;2023-04-06T14:15:46;100815;;;11.68;71.56
62632;BME280;48703;51.248;-0.546;2023-04-06T14:18:49;100814;;;11.51;73.83
62632;BME280;48703;51.248;-0.546;2023-04-06T14:21:50;100811;;;11.36;75.43
62632;BME280;48703;51.248;-0.546;2023-04-06T14:24:52;100811;;;11.27;77.12
62632;BME280;48703;51.248;-0.546;2023-04-06T14:27:55;100809;;;11.26;77.79
62632;BME280;48703;51.248;-0.546;2023-04-06T14:30:58;100804;;;11.20;76.30
62632;BME280;48703;51.248;-0.546;2023-04-06T14:34:00;100804;;;11.21;78.32
62632;BME280;48703;51.248;-0.546;2023-04-06T14:37:01;100806;;;11.25;77.87
62632;BME280;48703;51.248;-0.546;2023-04-06T14:40:03;100804;;;11.29;78.60
62632;BME280;48703;51.248;-0.546;2023-04-06T14:43:05;100800;;;11.36;79.18
62632;BME280;48703;51.248;-0.546;2023-04-06T14:46:07;100802;;;11.46;78.61
62632;BME280;48703;51.248;-0.546;2023-04-06T14:49:09;100803;;;11.54;78.09
62632;BME280;48703;51.248;-0.546;2023-04-06T14:52:11;100805;;;11.62;77.78
62632;BME280;48703;51.248;-0.546;2023-04-06T14:55:13;100805;;;11.71;78.76
62632;BME280;48703;51.248;-0.546;2023-04-06T14:58:15;100801;;;11.82;78.32
62632;BME280;48703;51.248;-0.546;2023-04-06T15:01:17;100802;;;12.07;79.43
62632;BME280;48703;51.248;-0.546;2023-04-06T15:04:19;100795;;;12.28;76.51
62632;BME280;48703;51.248;-0.546;2023-04-06T15:07:21;100797;;;12.38;76.74
62632;BME280;48703;51.248;-0.546;2023-04-06T15:10:23;100799;;;12.39;75.43
62632;BME280;48703;51.248;-0.546;2023-04-06T15:13:25;100796;;;12.45;74.41
62632;BME280;48703;51.248;-0.546;2023-04-06T15:16:27;100799;;;12.44;73.20
62632;BME280;48703;51.248;-0.546;2023-04-06T15:19:29;100802;;;12.45;73.73
62632;BME280;48703;51.248;-0.546;2023-04-06T15:22:31;100803;;;12.51;73.37
62632;BME280;48703;51.248;-0.546;2023-04-06T15:25:33;100801;;;12.48;69.41
62632;BME280;48703;51.248;-0.546;2023-04-06T15:28:35;100799;;;12.47;70.55
62632;BME280;48703;51.248;-0.546;2023-04-06T15:31:37;100799;;;12.43;70.23
62632;BME280;48703;51.248;-0.546;2023-04-06T15:34:39;100801;;;12.39;67.80
62632;BME280;48703;51.248;-0.546;2023-04-06T15:37:41;100799;;;12.28;65.98
62632;BME280;48703;51.248;-0.546;2023-04-06T15:40:43;100801;;;12.19;65.70
62632;BME280;48703;51.248;-0.546;2023-04-06T15:43:45;100806;;;12.11;66.00
62632;BME280;48703;51.248;-0.546;2023-04-06T15:46:47;100806;;;12.03;65.59
62632;BME280;48703;51.248;-0.546;2023-04-06T15:49:49;100809;;;12.09;64.63
62632;BME280;48703;51.248;-0.546;2023-04-06T15:52:51;100806;;;12.20;65.94
62632;BME280;48703;51.248;-0.546;2023-04-06T15:55:57;100810;;;12.32;63.96
62632;BME280;48703;51.248;-0.546;2023-04-06T15:58:55;100814;;;12.41;62.99
62632;BME280;48703;51.248;-0.546;2023-04-06T16:01:57;100816;;;12.56;61.84
62632;BME280;48703;51.248;-0.546;2023-04-06T16:04:59;100814;;;12.75;62.14
62632;BME280;48703;51.248;-0.546;2023-04-06T16:08:01;100813;;;13.01;63.19
62632;BME280;48703;51.248;-0.546;2023-04-06T16:11:03;100814;;;13.26;61.84
62632;BME280;48703;51.248;-0.546;2023-04-06T16:14:05;100815;;;13.36;60.84
62632;BME280;48703;51.248;-0.546;2023-04-06T16:17:07;100818;;;13.47;62.17
62632;BME280;48703;51.248;-0.546;2023-04-06T16:20:09;100815;;;13.58;61.24